Time;durP1;ratioP1;P1;durP2;ratioP2;P2;SDS_P1;SDS_P2;PMS_P1;PMS_P2;Temp;Humidity;BMP_temperature;BMP_pressure;BME280_temperature;BME280_humidity;BME280_pressure;Samples;Min_cycle;Max_cycle;Signal;HPM_P1;HPM_P2
2022/04/05 00:00:32;;;;;;;11.07;10.07;;;;;;;11.98;46.27;99356.31;6274863;22;20409;-88
2022/04/05 00:02:58;;;;;;;12.30;9.35;;;;;;;12.07;45.85;99362.25;6274882;22;20012;-88
2022/04/05 00:05:23;;;;;;;11.00;9.90;;;;;;;11.99;46.10;99375.63;6274926;22;20011;-89
2022/04/05 00:07:49;;;;;;;11.63;9.57;;;;;;;12.09;45.75;99378.78;6276462;22;20459;-88
2022/04/05 00:10:15;;;;;;;11.32;10.23;;;;;;;11.98;46.45;99392.53;6274857;22;20045;-89
2022/04/05 00:12:40;;;;;;;11.38;9.50;;;;;;;11.77;46.18;99333.31;6276233;22;20081;-89
2022/04/05 00:15:09;;;;;;;11.45;10.25;;;;;;;12.36;46.45;99424.78;6300574;22;19992;-88
2022/04/05 00:17:35;;;;;;;11.02;9.45;;;;;;;11.89;46.66;99344.22;6274923;22;20023;-89
2022/04/05 00:20:00;;;;;;;12.68;9.98;;;;;;;11.81;45.96;99335.56;6274738;22;19991;-89
2022/04/05 00:22:26;;;;;;;10.13;9.10;;;;;;;11.73;46.21;99347.06;6274799;22;20053;-88
2022/04/05 00:24:51;;;;;;;10.73;9.63;;;;;;;11.23;46.15;99260.78;6276096;22;20006;-87
2022/04/05 00:27:17;;;;;;;10.57;9.55;;;;;;;11.93;46.06;99329.59;6274750;22;20086;-88
2022/04/05 00:29:43;;;;;;;10.90;9.80;;;;;;;12.60;45.62;99445.53;6276347;22;20028;-89
2022/04/05 00:32:09;;;;;;;12.68;10.95;;;;;;;12.20;45.98;99403.91;6274673;22;20003;-88
2022/04/05 00:34:35;;;;;;;11.98;10.60;;;;;;;11.79;45.65;99327.81;6274429;22;19999;-88
2022/04/05 00:37:00;;;;;;;11.25;10.15;;;;;;;11.92;45.99;99335.91;6276090;22;20110;-89
2022/04/05 00:39:27;;;;;;;11.70;10.57;;;;;;;12.68;46.07;99452.53;6274831;22;20046;-88
2022/04/05 00:41:53;;;;;;;11.73;10.23;;;;;;;12.71;45.56;99438.91;6276416;22;20074;-88
2022/04/05 00:44:18;;;;;;;11.70;10.60;;;;;;;12.05;45.77;99343.13;6274476;22;20038;-88
2022/04/05 00:46:44;;;;;;;14.13;11.15;;;;;;;12.34;45.75;99366.75;6274951;22;20425;-89
2022/04/05 00:49:15;;;;;;;13.40;10.18;;;;;;;12.02;45.99;99330.28;6274343;22;20027;-89
2022/04/05 00:51:40;;;;;;;12.88;10.85;;;;;;;12.37;46.16;99368.19;6276188;22;20326;-88
2022/04/05 00:54:07;;;;;;;11.93;10.10;;;;;;;12.68;46.02;99408.34;6276253;22;20002;-88
2022/04/05 00:56:35;;;;;;;11.90;10.57;;;;;;;12.06;46.51;99313.00;6276139;22;20335;-89
2022/04/05 00:59:02;;;;;;;13.05;11.38;;;;;;;12.65;47.17;99421.97;6274107;22;20087;-88
2022/04/05 01:01:29;;;;;;;14.57;11.68;;;;;;;11.72;47.13;99297.81;6275985;22;20016;-89
2022/04/05 01:03:55;;;;;;;14.05;11.38;;;;;;;11.75;46.90;99315.97;6274470;22;20419;-89
2022/04/05 01:06:26;;;;;;;13.85;10.93;;;;;;;12.51;47.00;99403.50;6276162;22;19995;-89
2022/04/05 01:08:53;;;;;;;12.10;10.80;;;;;;;11.72;47.57;99266.91;6274423;22;20071;-88
2022/04/05 01:11:18;;;;;;;13.95;11.80;;;;;;;12.61;47.65;99403.97;6276084;22;20003;-88
2022/04/05 01:13:44;;;;;;;12.23;10.77;;;;;;;12.51;47.14;99385.78;6274214;22;19996;-88
2022/04/05 01:16:11;;;;;;;12.90;11.55;;;;;;;11.93;47.28;99283.81;6274326;22;20041;-87
2022/04/05 01:18:37;;;;;;;12.32;11.07;;;;;;;11.96;47.11;99273.66;6275873;22;20387;-88
2022/04/05 01:21:03;;;;;;;13.23;11.77;;;;;;;12.09;47.63;99302.03;6274417;22;20031;-88
2022/04/05 01:23:28;;;;;;;12.80;11.40;;;;;;;12.38;47.52;99359.22;6274386;22;20066;-88
2022/04/05 01:25:55;;;;;;;18.05;12.05;;;;;;;11.98;47.23;99302.56;6276003;22;19996;-89
2022/04/05 01:28:20;;;;;;;15.82;12.07;;;;;;;12.65;47.06;99379.59;6276185;22;20023;-88
2022/04/05 01:30:46;;;;;;;13.85;11.93;;;;;;;12.02;47.26;99291.41;6274414;22;20429;-88
2022/04/05 01:33:11;;;;;;;17.08;13.13;;;;;;;12.22;47.44;99317.16;6274624;22;19999;-88
2022/04/05 01:35:37;;;;;;;17.23;13.18;;;;;;;12.27;47.42;99328.00;6276243;22;20011;-89
2022/04/05 01:38:07;;;;;;;15.52;13.27;;;;;;;12.51;47.04;99364.59;6294036;22;20000;-87
2022/04/05 01:40:32;;;;;;;13.15;11.70;;;;;;;12.59;47.27;99390.13;6298330;22;20006;-85
2022/04/05 01:42:58;;;;;;;13.20;11.00;;;;;;;11.80;47.16;99294.25;6290141;22;20377;-88
2022/04/05 01:45:24;;;;;;;13.45;12.02;;;;;;;11.89;46.86;99299.25;6274596;22;19999;-89
2022/04/05 01:47:49;;;;;;;12.68;10.80;;;;;;;11.31;47.65;99194.59;6274293;22;20003;-89
2022/04/05 01:50:15;;;;;;;12.88;11.57;;;;;;;12.54;47.46;99381.94;6274418;22;20003;-88
2022/04/05 01:52:40;;;;;;;12.63;11.27;;;;;;;12.25;47.51;99335.31;6299848;22;20029;-89
2022/04/05 01:55:07;;;;;;;14.32;11.48;;;;;;;12.52;47.11;99376.81;6275916;22;20067;-88
2022/04/05 01:57:32;;;;;;;12.43;11.15;;;;;;;11.94;47.33;99282.78;6274115;22;19995;-89
2022/04/05 01:59:58;;;;;;;16.30;13.18;;;;;;;11.81;47.05;99280.84;6273928;22;20003;-88
2022/04/05 02:02:23;;;;;;;13.43;12.02;;;;;;;11.50;47.02;99245.97;6273796;22;20011;-89
2022/04/05 02:04:49;;;;;;;15.02;12.25;;;;;;;12.42;47.21;99371.06;6273644;22;20082;-89
2022/04/05 02:07:19;;;;;;;15.27;13.68;;;;;;;11.62;46.67;99278.81;6275415;22;20023;-88
2022/04/05 02:09:47;;;;;;;15.13;13.52;;;;;;;11.89;47.06;99303.69;6274211;22;20074;-89
2022/04/05 02:12:13;;;;;;;15.27;13.68;;;;;;;12.40;46.87;99383.69;6273920;22;20057;-89
2022/04/05 02:14:39;;;;;;;15.02;12.73;;;;;;;12.11;47.14;99321.19;6274266;22;19999;-89
2022/04/05 02:17:06;;;;;;;14.55;13.02;;;;;;;11.97;46.65;99309.69;6275907;22;20004;-87
2022/04/05 02:19:31;;;;;;;14.13;12.63;;;;;;;11.73;46.96;99286.25;6294657;22;19996;-88
2022/04/05 02:21:57;;;;;;;14.73;12.02;;;;;;;11.44;46.76;99250.22;6289561;22;20361;-87
2022/04/05 02:24:22;;;;;;;16.52;14.80;;;;;;;11.90;46.28;99311.47;6284353;22;19995;-89
2022/04/05 02:26:49;;;;;;;13.85;11.95;;;;;;;12.29;46.84;99370.97;6276643;22;20068;-89
2022/04/05 02:29:14;;;;;;;13.25;11.95;;;;;;;11.43;46.18;99254.69;6274475;22;20010;-89
2022/04/05 02:31:40;;;;;;;14.23;12.45;;;;;;;11.63;46.62;99293.69;6275656;22;20066;-89
2022/04/05 02:34:05;;;;;;;16.05;12.32;;;;;;;11.78;46.64;99307.69;6273475;22;20023;-89
2022/04/05 02:36:31;;;;;;;15.27;12.48;;;;;;;11.49;46.45;99253.09;6273165;22;19995;-89
2022/04/05 02:38:56;;;;;;;14.90;11.55;;;;;;;11.43;46.76;99254.69;6273329;22;20006;-88
2022/04/05 02:41:22;;;;;;;15.27;13.68;;;;;;;11.73;47.03;99296.81;6273383;22;20441;-89
2022/04/05 02:43:47;;;;;;;15.02;12.30;;;;;;;11.64;46.73;99308.53;6273182;22;20459;-89
2022/04/05 02:46:13;;;;;;;14.32;12.30;;;;;;;12.11;47.29;99358.22;6273504;22;20003;-90
2022/04/05 02:48:43;;;;;;;15.93;14.25;;;;;;;12.22;47.02;99362.16;6273266;22;20010;-88
2022/04/05 02:51:13;;;;;;;14.52;12.73;;;;;;;12.08;47.22;99342.72;6273270;22;20026;-89
2022/04/05 02:53:40;;;;;;;17.33;13.93;;;;;;;11.29;47.12;99223.03;6274846;22;19996;-88
2022/04/05 02:56:07;;;;;;;15.40;13.80;;;;;;;12.13;47.75;99358.03;6274787;22;19995;-88
2022/04/05 02:58:36;;;;;;;15.93;13.68;;;;;;;11.48;47.35;99275.25;6273310;22;20011;-89
2022/04/05 03:01:03;;;;;;;17.05;15.27;;;;;;;12.13;47.50;99366.78;6273235;22;19999;-89
2022/04/05 03:03:28;;;;;;;17.38;13.82;;;;;;;12.03;47.54;99364.47;6273217;22;20011;-89
2022/04/05 03:05:54;;;;;;;14.75;13.10;;;;;;;11.30;47.75;99228.13;6273247;22;20080;-89
2022/04/05 03:08:19;;;;;;;15.27;13.77;;;;;;;11.88;47.46;99353.13;6274802;22;20026;-89
2022/04/05 03:10:45;;;;;;;14.10;12.60;;;;;;;11.22;47.95;99228.28;6272867;22;20079;-89
2022/04/05 03:13:11;;;;;;;15.23;13.48;;;;;;;11.26;47.99;99239.28;6273077;22;19995;-90
2022/04/05 03:15:37;;;;;;;14.32;12.82;;;;;;;11.09;47.60;99236.03;6273006;22;20000;-89
2022/04/05 03:18:02;;;;;;;17.27;13.10;;;;;;;11.43;47.79;99277.66;6273177;22;20063;-90
2022/04/05 03:20:28;;;;;;;14.90;12.65;;;;;;;11.78;47.86;99332.31;6274768;22;20022;-89
2022/04/05 03:22:55;;;;;;;15.10;12.32;;;;;;;11.08;48.03;99215.91;6272827;22;19999;-89
2022/04/05 03:25:22;;;;;;;15.98;14.35;;;;;;;11.69;48.41;99340.53;6272666;22;20445;-89
2022/04/05 03:27:48;;;;;;;15.07;13.30;;;;;;;11.88;48.31;99379.59;6272919;22;19999;-89
2022/04/05 03:30:15;;;;;;;18.90;14.38;;;;;;;11.86;48.12;99400.13;6272834;22;20010;-89
2022/04/05 03:32:41;;;;;;;18.25;13.15;;;;;;;11.39;48.55;99322.16;6272917;22;20590;-90
2022/04/05 03:35:08;;;;;;;16.85;13.32;;;;;;;10.98;48.24;99257.69;6273005;22;19999;-89
2022/04/05 03:37:33;;;;;;;14.45;12.55;;;;;;;10.91;48.69;99252.31;6272969;22;20010;-89
2022/04/05 03:40:02;;;;;;;14.80;13.30;;;;;;;11.25;48.79;99307.16;6274886;22;20000;-90
2022/04/05 03:42:27;;;;;;;14.88;13.30;;;;;;;11.65;48.87;99379.75;6272851;22;20004;-89
2022/04/05 03:44:53;;;;;;;15.60;13.52;;;;;;;11.18;48.68;99298.34;6272797;22;20411;-89
2022/04/05 03:47:19;;;;;;;16.45;14.68;;;;;;;10.89;48.45;99262.25;6273050;22;20000;-89
2022/04/05 03:49:44;;;;;;;18.50;15.77;;;;;;;11.30;48.44;99328.56;6272993;22;20097;-89
2022/04/05 03:52:10;;;;;;;16.80;14.30;;;;;;;11.03;48.74;99271.13;6273010;22;20010;-89
2022/04/05 03:54:35;;;;;;;16.13;14.52;;;;;;;11.05;48.59;99298.19;6272939;22;20034;-89
2022/04/05 03:57:01;;;;;;;16.90;14.25;;;;;;;10.90;48.85;99255.16;6273116;22;20006;-89
2022/04/05 03:59:26;;;;;;;15.75;14.05;;;;;;;11.73;48.90;99389.38;6272898;22;20011;-89
2022/04/05 04:01:52;;;;;;;16.75;14.77;;;;;;;10.78;48.69;99231.06;6272876;22;20365;-90
2022/04/05 04:04:17;;;;;;;17.27;14.52;;;;;;;10.81;49.06;99247.34;6274277;22;20457;-87
2022/04/05 04:06:43;;;;;;;17.55;14.00;;;;;;;10.94;49.16;99257.22;6272887;22;20054;-90
2022/04/05 04:09:11;;;;;;;16.45;14.60;;;;;;;10.53;49.19;99185.69;6273055;22;19995;-90
2022/04/05 04:11:37;;;;;;;16.58;14.75;;;;;;;11.04;49.44;99259.56;6273093;22;20348;-89
2022/04/05 04:14:02;;;;;;;18.17;15.70;;;;;;;10.97;48.98;99248.94;6272680;22;19995;-89
2022/04/05 04:16:28;;;;;;;17.42;15.63;;;;;;;11.70;49.13;99368.59;6274474;22;19996;-90
2022/04/05 04:18:53;;;;;;;18.35;15.85;;;;;;;11.73;49.24;99358.47;6274719;22;19996;-90
2022/04/05 04:21:19;;;;;;;18.30;16.42;;;;;;;11.74;49.29;99364.56;6274256;22;19988;-89
2022/04/05 04:23:44;;;;;;;18.67;16.63;;;;;;;11.09;49.29;99252.72;6273906;22;20003;-89
2022/04/05 04:26:10;;;;;;;19.02;17.02;;;;;;;11.61;49.32;99335.38;6272298;22;20023;-89
2022/04/05 04:28:35;;;;;;;19.25;15.93;;;;;;;11.12;48.82;99252.34;6274095;22;20022;-90
2022/04/05 04:31:01;;;;;;;18.23;15.63;;;;;;;11.21;49.80;99284.78;6272360;22;20108;-89
2022/04/05 04:33:26;;;;;;;21.10;15.50;;;;;;;11.08;49.21;99256.34;6272710;22;20058;-89
2022/04/05 04:35:53;;;;;;;20.08;16.10;;;;;;;10.83;48.90;99218.09;6274228;22;20098;-89
2022/04/05 04:38:18;;;;;;;20.77;16.35;;;;;;;10.99;49.18;99224.97;6274514;22;20002;-89
2022/04/05 04:40:50;;;;;;;19.75;16.65;;;;;;;11.90;49.04;99364.38;6276431;22;20000;-90
2022/04/05 04:43:16;;;;;;;20.98;16.05;;;;;;;11.73;48.55;99339.13;6274567;22;20006;-89
2022/04/05 04:45:41;;;;;;;23.38;17.83;;;;;;;11.40;49.03;99283.31;6274484;22;20007;-89
2022/04/05 04:48:07;;;;;;;23.38;17.45;;;;;;;11.43;48.95;99296.97;6274365;22;20351;-89
2022/04/05 04:50:32;;;;;;;22.90;17.85;;;;;;;10.59;49.32;99144.53;6274478;22;20097;-89
2022/04/05 04:52:58;;;;;;;25.90;18.85;;;;;;;11.34;49.15;99274.31;6274684;22;20454;-89
2022/04/05 04:55:24;;;;;;;21.85;17.45;;;;;;;11.05;49.26;99217.09;6274846;22;19995;-89
2022/04/05 04:57:50;;;;;;;26.55;17.95;;;;;;;11.72;49.07;99337.50;6275947;22;20455;-89
2022/04/05 05:00:17;;;;;;;21.67;17.80;;;;;;;11.94;49.00;99365.63;6274335;22;20456;-89
2022/04/05 05:02:48;;;;;;;23.35;17.33;;;;;;;11.11;49.09;99252.53;6274223;22;20020;-89
2022/04/05 05:05:20;;;;;;;20.73;16.67;;;;;;;11.32;49.40;99264.94;6275845;22;20030;-89
2022/04/05 05:07:50;;;;;;;22.10;16.60;;;;;;;11.64;49.31;99324.41;6274318;22;20008;-89
2022/04/05 05:10:16;;;;;;;19.88;15.55;;;;;;;11.35;49.10;99273.31;6274222;22;20000;-88
2022/04/05 05:12:43;;;;;;;18.42;15.15;;;;;;;11.28;49.12;99288.28;6274080;22;20034;-89
2022/04/05 05:15:10;;;;;;;21.05;17.77;;;;;;;11.51;48.84;99306.59;6274041;22;19998;-89
2022/04/05 05:17:35;;;;;;;22.08;18.30;;;;;;;11.09;48.98;99242.16;6274251;22;20008;-90
2022/04/05 05:20:05;;;;;;;23.83;19.45;;;;;;;11.14;49.26;99255.59;6274181;22;20074;-89
2022/04/05 05:22:30;;;;;;;26.80;20.67;;;;;;;11.97;49.13;99354.66;6274027;22;20003;-89
2022/04/05 05:24:55;;;;;;;23.83;19.92;;;;;;;11.97;48.43;99357.31;6273829;22;20003;-89
2022/04/05 05:27:21;;;;;;;31.92;23.90;;;;;;;12.00;48.78;99350.81;6273949;22;20004;-89
2022/04/05 05:29:46;;;;;;;31.45;25.48;;;;;;;11.25;48.96;99241.09;6274045;22;20026;-88
2022/04/05 05:32:12;;;;;;;38.97;27.80;;;;;;;11.94;48.68;99352.41;6275495;22;19999;-89
2022/04/05 05:34:37;;;;;;;42.47;31.55;;;;;;;12.30;48.78;99391.16;6273836;22;20352;-89
2022/04/05 05:37:05;;;;;;;41.55;29.65;;;;;;;12.29;48.49;99360.38;6273596;22;20468;-89
2022/04/05 05:39:31;;;;;;;40.25;29.55;;;;;;;11.78;48.62;99297.09;6274040;22;20006;-89
2022/04/05 05:41:56;;;;;;;39.30;29.63;;;;;;;11.91;48.60;99284.00;6275025;22;19995;-87
2022/04/05 05:44:23;;;;;;;38.80;27.70;;;;;;;12.01;48.47;99308.28;6273092;22;20522;-89
2022/04/05 05:46:49;;;;;;;36.03;26.20;;;;;;;11.99;48.55;99294.44;6272646;22;20086;-89
2022/04/05 05:49:14;;;;;;;38.45;26.45;;;;;;;12.62;48.23;99385.25;6273502;22;20027;-88
2022/04/05 05:51:40;;;;;;;31.85;24.35;;;;;;;11.92;48.38;99276.88;6273152;22;20030;-90
2022/04/05 05:54:05;;;;;;;33.80;25.15;;;;;;;11.87;48.59;99295.13;6273325;22;20034;-89
2022/04/05 05:56:31;;;;;;;31.65;23.73;;;;;;;12.09;47.96;99321.38;6275419;22;20034;-89
2022/04/05 05:58:56;;;;;;;34.08;25.52;;;;;;;11.97;48.27;99282.41;6275206;22;20006;-88
2022/04/05 06:01:23;;;;;;;33.78;23.45;;;;;;;12.43;48.16;99350.69;6299329;22;20018;-89
2022/04/05 06:03:49;;;;;;;32.00;23.90;;;;;;;12.54;48.29;99350.16;6273571;22;20366;-89
2022/04/05 06:06:14;;;;;;;34.20;25.38;;;;;;;12.22;48.03;99286.22;6274961;22;20000;-89
2022/04/05 06:08:40;;;;;;;38.45;27.23;;;;;;;12.56;48.21;99335.69;6273400;22;19996;-88
2022/04/05 06:11:07;;;;;;;35.53;23.02;;;;;;;12.70;48.16;99377.16;6274508;22;20006;-88
2022/04/05 06:13:33;;;;;;;31.70;25.08;;;;;;;11.93;48.40;99231.72;6272884;22;19996;-88
2022/04/05 06:15:59;;;;;;;34.22;23.23;;;;;;;12.70;48.48;99349.88;6273409;22;19995;-88
2022/04/05 06:18:24;;;;;;;29.65;24.45;;;;;;;11.74;48.49;99184.72;6274026;22;20006;-89
2022/04/05 06:20:50;;;;;;;29.63;25.20;;;;;;;11.95;48.58;99239.44;6275338;22;20018;-88
2022/04/05 06:23:15;;;;;;;34.53;26.00;;;;;;;12.36;48.31;99301.19;6275049;22;20037;-88
2022/04/05 06:25:41;;;;;;;29.80;24.73;;;;;;;13.00;48.22;99392.81;6273457;22;20463;-89
2022/04/05 06:28:09;;;;;;;34.20;26.73;;;;;;;12.07;48.30;99232.59;6273685;22;20141;-88
2022/04/05 06:30:37;;;;;;;36.97;29.98;;;;;;;12.28;48.37;99285.44;6274824;22;20059;-88
2022/04/05 06:33:08;;;;;;;37.13;30.58;;;;;;;13.13;48.19;99381.44;6275238;22;20464;-88
2022/04/05 06:35:34;;;;;;;40.75;31.45;;;;;;;12.35;48.18;99248.41;6273386;22;20077;-87
2022/04/05 06:38:00;;;;;;;35.25;24.20;;;;;;;11.74;48.35;99174.16;6275019;22;20006;-88
2022/04/05 06:40:26;;;;;;;36.78;30.33;;;;;;;12.56;48.54;99290.69;6282246;22;20071;-89
2022/04/05 06:42:51;;;;;;;41.10;32.47;;;;;;;13.10;48.13;99350.84;6286897;22;19999;-84
2022/04/05 06:45:19;;;;;;;39.63;29.52;;;;;;;12.83;48.25;99338.50;6291198;22;20056;-85
2022/04/05 06:47:45;;;;;;;44.15;30.85;;;;;;;13.34;48.37;99384.81;6292366;22;20027;-85
2022/04/05 06:50:12;;;;;;;35.88;28.52;;;;;;;12.54;48.25;99278.66;6286476;22;20348;-87
2022/04/05 06:52:38;;;;;;;38.40;30.27;;;;;;;12.57;48.51;99257.88;6274187;22;20056;-87
2022/04/05 06:55:05;;;;;;;32.65;26.20;;;;;;;12.45;48.32;99264.75;6269168;22;19995;-88
2022/04/05 06:57:31;;;;;;;33.83;26.65;;;;;;;12.95;48.08;99336.94;6272905;22;20445;-86
2022/04/05 06:59:57;;;;;;;32.63;24.25;;;;;;;12.65;48.09;99284.22;6271250;22;20043;-87
2022/04/05 07:02:22;;;;;;;29.58;26.05;;;;;;;13.05;48.31;99342.66;6273191;22;20090;-87
2022/04/05 07:04:48;;;;;;;27.05;22.48;;;;;;;12.98;48.01;99308.19;6271981;22;20032;-88
2022/04/05 07:07:14;;;;;;;28.00;19.52;;;;;;;13.36;47.76;99366.84;6272035;22;20385;-87
2022/04/05 07:09:39;;;;;;;25.67;20.52;;;;;;;13.06;47.74;99296.59;6271927;22;19999;-89
2022/04/05 07:12:07;;;;;;;20.92;18.02;;;;;;;12.96;47.55;99289.03;6272432;22;20004;-87
2022/04/05 07:14:34;;;;;;;21.50;18.48;;;;;;;13.27;48.01;99336.22;6274452;22;20442;-88
2022/04/05 07:16:59;;;;;;;21.08;18.80;;;;;;;13.31;47.64;99310.13;6274222;22;20468;-88
2022/04/05 07:19:25;;;;;;;21.88;17.75;;;;;;;13.76;47.45;99384.72;6274954;22;19995;-88
2022/04/05 07:21:51;;;;;;;22.33;17.23;;;;;;;13.13;47.28;99291.31;6273349;22;20003;-88
2022/04/05 07:24:17;;;;;;;28.50;20.05;;;;;;;13.01;47.71;99299.03;6272544;22;20007;-86
2022/04/05 07:26:42;;;;;;;20.45;17.60;;;;;;;13.25;47.15;99287.09;6284226;22;20464;-85
2022/04/05 07:29:08;;;;;;;26.70;18.08;;;;;;;13.58;47.02;99311.84;6293896;22;20509;-86
2022/04/05 07:31:33;;;;;;;19.83;16.70;;;;;;;14.18;46.79;99405.59;6291803;22;20002;-85
2022/04/05 07:33:59;;;;;;;20.60;16.70;;;;;;;13.48;46.51;99262.84;6279474;22;20016;-87
2022/04/05 07:36:24;;;;;;;23.48;17.27;;;;;;;13.41;46.63;99230.22;6272917;22;20003;-87
2022/04/05 07:38:49;;;;;;;19.00;16.42;;;;;;;14.09;46.31;99328.97;6274119;22;20007;-86
2022/04/05 07:41:15;;;;;;;24.60;17.92;;;;;;;14.29;46.01;99351.84;6273585;22;20326;-87
2022/04/05 07:43:40;;;;;;;18.27;13.63;;;;;;;13.83;45.84;99274.06;6271439;22;19999;-87
2022/04/05 07:46:06;;;;;;;17.17;15.38;;;;;;;14.40;45.77;99374.31;6271221;22;20003;-87
2022/04/05 07:48:31;;;;;;;17.10;13.98;;;;;;;14.45;45.54;99355.94;6270735;22;20011;-86
2022/04/05 07:50:57;;;;;;;19.80;16.35;;;;;;;14.41;45.41;99328.13;6272362;22;20330;-87
2022/04/05 07:53:23;;;;;;;19.30;15.10;;;;;;;14.73;45.21;99374.25;6272352;22;20006;-86
2022/04/05 07:55:48;;;;;;;19.35;14.02;;;;;;;14.36;44.71;99306.69;6271513;22;20000;-87
2022/04/05 07:58:14;;;;;;;16.42;13.68;;;;;;;13.99;44.40;99216.06;6273822;22;20046;-86
2022/04/05 08:00:39;;;;;;;18.13;14.95;;;;;;;15.06;44.21;99392.78;6271700;22;20531;-86
2022/04/05 08:03:05;;;;;;;17.88;14.82;;;;;;;14.48;44.17;99294.44;6271103;22;20023;-86
2022/04/05 08:05:31;;;;;;;16.40;13.32;;;;;;;15.23;43.91;99393.13;6271665;22;20014;-86
2022/04/05 08:07:56;;;;;;;15.02;12.43;;;;;;;14.23;43.55;99224.41;6298158;22;20022;-85
2022/04/05 08:10:22;;;;;;;15.18;12.50;;;;;;;14.91;43.29;99315.13;6273422;22;20042;-85
2022/04/05 08:12:49;;;;;;;14.75;12.10;;;;;;;14.90;43.01;99310.84;6275881;22;19999;-85
2022/04/05 08:15:21;;;;;;;18.38;12.00;;;;;;;14.95;42.66;99308.38;6273252;22;20003;-86
2022/04/05 08:17:47;;;;;;;15.35;11.77;;;;;;;15.24;42.40;99353.03;6275373;22;19999;-84
2022/04/05 08:20:13;;;;;;;13.20;11.35;;;;;;;13.97;42.35;99145.63;6273128;22;19995;-85
2022/04/05 08:22:39;;;;;;;14.70;11.40;;;;;;;15.05;42.32;99310.56;6274263;22;20007;-85
2022/04/05 08:25:06;;;;;;;14.35;12.35;;;;;;;15.22;41.98;99354.25;6273886;22;20409;-88
2022/04/05 08:27:33;;;;;;;16.20;12.27;;;;;;;15.35;42.46;99379.97;6273547;22;20004;-87
2022/04/05 08:29:58;;;;;;;13.23;11.93;;;;;;;14.84;42.28;99291.22;6271352;22;20074;-87
2022/04/05 08:32:24;;;;;;;20.52;16.88;;;;;;;14.79;42.32;99279.59;6275125;22;20474;-86
2022/04/05 08:34:49;;;;;;;14.80;12.85;;;;;;;14.74;41.85;99247.53;6275444;22;20049;-85
2022/04/05 08:37:15;;;;;;;12.55;11.25;;;;;;;15.12;41.45;99298.88;6273386;22;20436;-87
2022/04/05 08:39:42;;;;;;;12.23;10.55;;;;;;;14.80;41.38;99222.75;6273188;22;20003;-87
2022/04/05 08:42:09;;;;;;;12.30;10.77;;;;;;;15.55;41.17;99324.78;6272281;22;20079;-87
2022/04/05 08:44:35;;;;;;;11.95;9.65;;;;;;;15.80;40.58;99354.16;6273114;22;20011;-86
2022/04/05 08:47:02;;;;;;;12.88;10.07;;;;;;;15.07;40.49;99221.59;6275111;22;20479;-88
2022/04/05 08:49:29;;;;;;;13.13;9.13;;;;;;;16.00;40.18;99356.66;6273164;22;20007;-86
2022/04/05 08:51:55;;;;;;;10.27;9.15;;;;;;;15.22;40.02;99232.72;6274031;22;20016;-85
2022/04/05 08:54:21;;;;;;;13.82;9.82;;;;;;;15.37;40.02;99240.41;6273198;22;20057;-85
2022/04/05 08:56:47;;;;;;;11.52;10.32;;;;;;;15.75;39.96;99298.91;6273150;22;19999;-85
2022/04/05 08:59:14;;;;;;;10.27;7.90;;;;;;;16.16;39.31;99327.63;6273730;22;20129;-87
2022/04/05 09:01:43;;;;;;;8.45;7.63;;;;;;;15.72;39.07;99226.66;6272681;22;20051;-84
2022/04/05 09:04:10;;;;;;;9.18;8.13;;;;;;;16.61;38.69;99321.25;6272544;22;20003;-86
2022/04/05 09:06:36;;;;;;;12.82;8.48;;;;;;;16.63;38.23;99324.50;6273625;22;20011;-85
2022/04/05 09:09:13;;;;;;;10.25;8.75;;;;;;;15.03;38.48;99098.09;6275685;22;19996;-87
2022/04/05 09:11:46;;;;;;;10.80;8.48;;;;;;;15.83;38.24;99183.34;6274125;22;19999;-86
2022/04/05 09:14:12;;;;;;;8.85;7.70;;;;;;;15.76;38.18;99210.03;6273584;22;20066;-86
2022/04/05 09:16:38;;;;;;;10.75;7.18;;;;;;;15.72;38.15;99205.38;6274877;22;20411;-87
2022/04/05 09:19:12;;;;;;;9.23;7.88;;;;;;;16.35;38.31;99307.19;6273234;22;20357;-86
2022/04/05 09:21:58;;;;;;;8.65;7.13;;;;;;;16.35;38.27;99309.00;6273324;22;20000;-86
2022/04/05 09:24:35;;;;;;;8.43;7.53;;;;;;;16.30;37.99;99300.84;6273630;22;20003;-86
2022/04/05 09:27:01;;;;;;;8.65;7.75;;;;;;;16.29;38.42;99291.22;6273397;22;20004;-86
2022/04/05 09:29:40;;;;;;;7.85;7.03;;;;;;;16.58;37.39;99297.69;6273914;22;20076;-86
2022/04/05 09:32:06;;;;;;;8.23;6.22;;;;;;;16.72;37.75;99288.53;6273758;22;20062;-86
2022/04/05 09:34:32;;;;;;;6.93;5.68;;;;;;;16.91;37.74;99306.16;6275332;22;19999;-87
2022/04/05 09:37:07;;;;;;;5.82;4.95;;;;;;;17.00;37.75;99275.44;6273868;22;19999;-86
2022/04/05 09:39:33;;;;;;;7.32;5.93;;;;;;;17.19;37.06;99264.75;6274135;22;20365;-86
2022/04/05 09:42:02;;;;;;;9.50;5.80;;;;;;;16.96;36.94;99207.59;6275092;22;20007;-87
2022/04/05 09:44:33;;;;;;;6.72;6.05;;;;;;;17.41;36.51;99284.53;6273715;22;20026;-86
2022/04/05 09:47:03;;;;;;;8.35;5.63;;;;;;;17.10;36.72;99249.06;6273521;22;19999;-86
2022/04/05 09:49:34;;;;;;;7.05;6.35;;;;;;;17.35;36.53;99278.25;6273378;22;20031;-86
2022/04/05 09:52:00;;;;;;;7.18;6.35;;;;;;;16.49;36.54;99147.94;6275501;22;20000;-86
2022/04/05 09:54:29;;;;;;;8.10;7.10;;;;;;;17.47;36.63;99272.94;6273568;22;20103;-86
2022/04/05 09:57:00;;;;;;;6.00;5.50;;;;;;;17.51;36.13;99292.00;6273914;22;19999;-86
2022/04/05 09:59:46;;;;;;;10.40;8.13;;;;;;;16.57;35.79;99114.84;6273918;22;19996;-86
2022/04/05 10:02:17;;;;;;;5.78;4.95;;;;;;;17.93;35.39;99274.91;6275108;22;20404;-86
2022/04/05 10:05:07;;;;;;;6.72;5.30;;;;;;;17.93;35.27;99261.56;6273421;22;20453;-86
2022/04/05 10:07:34;;;;;;;6.03;5.40;;;;;;;17.97;35.11;99259.22;6273886;22;19999;-86
2022/04/05 10:10:05;;;;;;;7.18;5.55;;;;;;;17.83;35.16;99245.28;6273741;22;20007;-86
2022/04/05 10:12:30;;;;;;;5.88;5.28;;;;;;;17.26;35.09;99148.88;6275303;22;19999;-86
2022/04/05 10:14:56;;;;;;;9.52;5.43;;;;;;;18.06;35.12;99257.84;6273563;22;20430;-86
2022/04/05 10:17:28;;;;;;;7.47;5.70;;;;;;;18.26;34.43;99254.78;6273028;22;20002;-86
2022/04/05 10:19:59;;;;;;;7.03;5.95;;;;;;;18.46;34.42;99249.06;6271647;22;20030;-86
2022/04/05 10:22:26;;;;;;;6.93;5.70;;;;;;;18.58;33.95;99226.63;6271306;22;20497;-86
2022/04/05 10:24:53;;;;;;;6.10;5.47;;;;;;;17.93;33.42;99095.13;6274029;22;20246;-86
2022/04/05 10:27:23;;;;;;;5.97;4.97;;;;;;;18.67;33.08;99192.31;6274469;22;19999;-86
2022/04/05 10:30:04;;;;;;;7.47;5.88;;;;;;;18.97;33.20;99238.34;6273135;22;20010;-86
2022/04/05 10:32:51;;;;;;;5.93;5.13;;;;;;;18.67;32.94;99163.72;6272966;22;20004;-86
2022/04/05 10:35:23;;;;;;;7.03;5.78;;;;;;;18.17;32.80;99155.47;6273651;22;20078;-86
2022/04/05 10:37:48;;;;;;;5.70;5.03;;;;;;;17.84;32.86;99180.16;6272735;22;20000;-86
2022/04/05 10:40:17;;;;;;;7.45;5.53;;;;;;;18.28;33.15;99234.00;6272999;22;20070;-86
2022/04/05 10:42:54;;;;;;;6.47;5.88;;;;;;;17.55;33.86;99133.00;6273056;22;20437;-86
2022/04/05 10:45:21;;;;;;;5.43;4.93;;;;;;;17.86;34.09;99220.81;6273886;22;20003;-86
2022/04/05 10:47:55;;;;;;;5.78;5.18;;;;;;;17.70;34.49;99230.28;6272234;22;20406;-86
2022/04/05 10:50:21;;;;;;;5.22;4.72;;;;;;;17.24;34.75;99177.66;6272937;22;20000;-86
2022/04/05 10:52:48;;;;;;;6.63;5.93;;;;;;;17.50;34.64;99221.78;6273369;22;20077;-85
2022/04/05 10:55:20;;;;;;;6.80;4.97;;;;;;;17.00;34.88;99150.09;6272846;22;19991;-86
2022/04/05 10:57:46;;;;;;;5.72;4.90;;;;;;;17.28;34.89;99165.47;6272705;22;20003;-86
2022/04/05 11:00:18;;;;;;;6.00;4.45;;;;;;;18.20;33.82;99211.13;6274583;22;20074;-86
2022/04/05 11:03:04;;;;;;;5.30;4.78;;;;;;;18.51;33.14;99201.84;6271447;22;20525;-86
2022/04/05 11:05:38;;;;;;;6.65;5.25;;;;;;;18.55;32.99;99164.75;6297691;22;20457;-86
2022/04/05 11:08:15;;;;;;;5.47;4.97;;;;;;;18.08;32.84;99128.31;6274436;22;20002;-86
2022/04/05 11:10:40;;;;;;;6.40;5.25;;;;;;;18.13;33.30;99182.91;6272609;22;20459;-87
2022/04/05 11:13:10;;;;;;;6.25;5.63;;;;;;;18.51;33.11;99175.13;6270657;22;20031;-86
2022/04/05 11:15:40;;;;;;;8.05;5.60;;;;;;;18.70;32.41;99114.28;6271601;22;20081;-86
2022/04/05 11:18:08;;;;;;;6.75;5.30;;;;;;;19.45;31.65;99121.13;6270567;22;20019;-86
2022/04/05 11:20:35;;;;;;;8.30;4.82;;;;;;;19.87;30.70;99103.50;6272005;22;20010;-86